Time;durP1;ratioP1;P1;durP2;ratioP2;P2;SDS_P1;SDS_P2;PMS_P1;PMS_P2;Temp;Humidity;BMP_temperature;BMP_pressure;BME280_temperature;BME280_humidity;BME280_pressure;Samples;Min_cycle;Max_cycle;Signal;HPM_P1;HPM_P2
2021/12/11 00:01:42;;;;;;;56.47;22.67;;;;;;;-1.75;95.77;99857.31;7399963;19;20369;-70
2021/12/11 00:04:14;;;;;;;78.07;22.70;;;;;;;-1.77;95.48;99869.25;7400457;19;20015;-70
2021/12/11 00:06:47;;;;;;;61.75;20.95;;;;;;;-1.78;95.81;99868.41;7400265;19;20458;-70
2021/12/11 00:09:21;;;;;;;84.85;22.52;;;;;;;-1.81;95.63;99876.06;7397532;19;20467;-70
2021/12/11 00:11:55;;;;;;;;;;;;;;;-1.78;95.72;99885.53;7400236;19;20425;-71
2021/12/11 00:14:24;;;;;;;72.07;21.67;;;;;;;-1.82;95.52;99888.06;7398402;19;19939;-70
2021/12/11 00:16:53;;;;;;;67.25;21.92;;;;;;;-1.82;95.82;99892.31;7397169;19;20035;-70
2021/12/11 00:19:25;;;;;;;53.63;21.80;;;;;;;-1.81;95.58;99894.94;7396745;19;20515;-71
2021/12/11 00:21:54;;;;;;;55.33;22.40;;;;;;;-1.80;95.89;99899.22;7399703;19;20019;-70
2021/12/11 00:24:29;;;;;;;57.92;23.13;;;;;;;-1.78;95.75;99903.53;7397844;19;20425;-71
2021/12/11 00:27:03;;;;;;;59.17;23.42;;;;;;;-1.77;95.95;99905.25;7399534;19;20040;-70
2021/12/11 00:29:34;;;;;;;53.83;23.08;;;;;;;-1.75;95.95;99919.03;7396445;19;20590;-71
2021/12/11 00:32:06;;;;;;;80.32;22.27;;;;;;;-1.78;95.95;99914.69;7398905;19;20362;-71
2021/12/11 00:34:35;;;;;;;66.07;22.52;;;;;;;-1.76;95.44;99915.56;7397663;19;20070;-70
2021/12/11 00:37:07;;;;;;;59.55;22.77;;;;;;;-1.78;95.73;99924.09;7398608;19;20031;-70
2021/12/11 00:39:39;;;;;;;70.15;22.63;;;;;;;-1.80;95.92;99924.94;7399143;19;20014;-70
2021/12/11 00:42:13;;;;;;;51.72;21.02;;;;;;;-1.80;95.84;99927.50;7398644;19;20022;-70
2021/12/11 00:44:44;;;;;;;51.72;21.13;;;;;;;-1.78;95.80;99932.69;7396549;19;20014;-70
2021/12/11 00:47:15;;;;;;;65.35;22.02;;;;;;;-1.76;95.83;99933.56;7398041;19;20026;-71
2021/12/11 00:49:50;;;;;;;65.72;21.40;;;;;;;-1.76;95.99;99936.16;7396218;19;20554;-71
2021/12/11 00:52:19;;;;;;;69.30;23.02;;;;;;;-1.73;96.12;99948.19;7398800;19;20015;-71
2021/12/11 00:54:48;;;;;;;65.68;21.05;;;;;;;-1.72;95.85;99955.06;7396759;19;20015;-70
2021/12/11 00:57:23;;;;;;;73.18;21.58;;;;;;;-1.77;95.50;99952.41;7398234;19;20074;-71
2021/12/11 01:00:06;;;;;;;65.95;22.45;;;;;;;-1.79;95.46;99961.81;7398445;19;20022;-71
2021/12/11 01:02:35;;;;;;;58.97;19.20;;;;;;;-1.82;95.45;99964.34;7396497;19;20022;-69
2021/12/11 01:05:05;;;;;;;52.63;20.80;;;;;;;-1.86;95.83;99967.69;7395923;19;20019;-71
2021/12/11 01:07:33;;;;;;;63.80;20.35;;;;;;;-1.87;96.02;99973.69;7397970;19;20032;-70
2021/12/11 01:10:07;;;;;;;59.63;21.83;;;;;;;-1.85;95.92;99982.28;7395773;19;20022;-70
2021/12/11 01:12:44;;;;;;;66.10;21.08;;;;;;;-1.86;96.00;99978.88;7398152;19;20031;-70
2021/12/11 01:15:17;;;;;;;78.53;21.20;;;;;;;-1.88;95.88;99984.84;7395935;19;20011;-69
2021/12/11 01:17:59;;;;;;;62.35;21.13;;;;;;;-1.84;96.17;99991.75;7397948;19;20018;-70
2021/12/11 01:20:35;;;;;;;60.95;21.77;;;;;;;-1.83;96.03;99996.91;7397757;19;20040;-70
2021/12/11 01:23:14;;;;;;;85.93;21.92;;;;;;;-1.85;95.76;99990.88;7396979;19;20379;-70
2021/12/11 01:25:42;;;;;;;57.60;22.13;;;;;;;-1.84;96.13;99994.31;7395826;19;20077;-70
2021/12/11 01:28:14;;;;;;;59.85;21.50;;;;;;;-1.82;96.21;99995.19;7396852;19;20078;-70
2021/12/11 01:30:45;;;;;;;75.13;22.70;;;;;;;-1.81;96.24;99995.25;7397431;19;20044;-70
2021/12/11 01:33:13;;;;;;;54.08;21.95;;;;;;;-1.81;96.22;99997.81;7397167;19;20032;-70
2021/12/11 01:35:43;;;;;;;63.47;22.08;;;;;;;-1.77;96.25;100003.00;7396880;19;20027;-70
2021/12/11 01:38:14;;;;;;;91.95;26.33;;;;;;;-1.76;96.02;100004.72;7395803;19;20028;-70
2021/12/11 01:40:45;;;;;;;84.28;20.75;;;;;;;-1.76;96.00;100005.59;7395612;19;20022;-70
2021/12/11 01:43:17;;;;;;;65.45;21.33;;;;;;;-1.78;95.74;100015.00;7396570;19;20021;-70
2021/12/11 01:45:48;;;;;;;59.80;20.83;;;;;;;-1.82;95.79;100018.34;7396963;19;20035;-70
2021/12/11 01:48:19;;;;;;;100.63;20.40;;;;;;;-1.82;95.96;100024.38;7394725;19;20419;-70
2021/12/11 01:50:51;;;;;;;73.30;20.88;;;;;;;-1.85;95.94;100026.88;7396093;19;20505;-70
2021/12/11 01:53:23;;;;;;;92.72;21.40;;;;;;;-1.86;96.08;100037.13;7396456;19;20081;-70
2021/12/11 01:55:55;;;;;;;74.30;20.83;;;;;;;-1.88;96.01;100037.09;7394989;19;20026;-70
2021/12/11 01:58:30;;;;;;;55.90;21.23;;;;;;;-1.86;96.32;100045.72;7396182;19;20371;-70
2021/12/11 02:01:03;;;;;;;76.57;23.67;;;;;;;-1.85;96.28;100046.59;7394808;19;20018;-70
2021/12/11 02:03:34;;;;;;;72.95;20.77;;;;;;;-1.86;95.99;100045.72;7394261;19;20390;-70
2021/12/11 02:06:03;;;;;;;59.78;20.67;;;;;;;-1.84;96.24;100050.91;7396501;19;20022;-68
2021/12/11 02:08:34;;;;;;;68.38;23.02;;;;;;;-1.84;96.21;100041.47;7395451;19;20030;-69
2021/12/11 02:11:05;;;;;;;77.43;21.42;;;;;;;-1.83;96.28;100042.34;7396315;19;20018;-69
2021/12/11 02:13:42;;;;;;;70.38;22.10;;;;;;;-1.85;96.26;100037.16;7397511;19;20018;-68
2021/12/11 02:16:19;;;;;;;89.78;23.40;;;;;;;-1.83;96.20;100045.78;7394384;19;20034;-68
2021/12/11 02:18:50;;;;;;;76.75;24.27;;;;;;;-1.81;96.13;100054.38;7396032;19;20014;-69
2021/12/11 02:21:22;;;;;;;64.05;21.83;;;;;;;-1.77;96.44;100062.13;7394443;19;20009;-69
2021/12/11 02:24:02;;;;;;;95.65;24.58;;;;;;;-1.74;96.17;100067.34;7393452;19;20387;-69
2021/12/11 02:26:31;;;;;;;87.43;24.67;;;;;;;-1.72;96.32;100073.38;7395792;19;20018;-69
2021/12/11 02:29:05;;;;;;;78.78;24.23;;;;;;;-1.73;96.38;100067.38;7393495;19;20082;-69
2021/12/11 02:31:37;;;;;;;119.38;25.17;;;;;;;-1.73;96.44;100074.22;7395719;19;20014;-68
2021/12/11 02:34:10;;;;;;;73.18;22.67;;;;;;;-1.74;96.11;100078.50;7393641;19;20031;-69
2021/12/11 02:36:43;;;;;;;93.18;24.35;;;;;;;-1.75;95.99;100081.06;7395524;19;20023;-68
2021/12/11 02:39:26;;;;;;;102.30;23.47;;;;;;;-1.76;96.18;100081.88;7403179;19;20413;-68
2021/12/11 02:41:58;;;;;;;79.57;24.10;;;;;;;-1.80;95.96;100084.38;7402748;19;20425;-68
2021/12/11 02:44:31;;;;;;;80.50;22.95;;;;;;;-1.78;96.22;100087.00;7399914;19;20094;-68
2021/12/11 02:47:02;;;;;;;100.50;24.45;;;;;;;-1.78;96.25;100088.69;7402658;19;20082;-68
2021/12/11 02:49:35;;;;;;;69.35;22.92;;;;;;;-1.78;96.22;100096.41;7401317;19;20162;-69
2021/12/11 02:52:09;;;;;;;105.53;24.40;;;;;;;-1.81;96.34;100086.94;7402645;19;20082;-68
2021/12/11 02:54:41;;;;;;;;;;;;;;;-1.80;96.27;100099.81;7401502;19;20468;-67
2021/12/11 02:57:14;;;;;;;69.75;22.65;;;;;;;-1.80;96.18;100102.38;7402596;19;19918;-67
2021/12/11 02:59:44;;;;;;;74.82;22.98;;;;;;;-1.79;96.53;100095.56;7402591;19;20091;-67
2021/12/11 03:02:17;;;;;;;68.78;24.17;;;;;;;-1.76;96.20;100105.03;7402422;19;20029;-67
2021/12/11 03:04:51;;;;;;;89.60;23.25;;;;;;;-1.74;96.34;100111.09;7399308;19;20363;-70
2021/12/11 03:07:35;;;;;;;83.78;24.67;;;;;;;-1.75;96.23;100105.06;7402228;19;20018;-68
2021/12/11 03:10:10;;;;;;;102.35;25.45;;;;;;;-1.74;96.48;100111.94;7400186;19;20020;-67
2021/12/11 03:12:38;;;;;;;104.03;28.60;;;;;;;-1.73;96.44;100110.22;7401958;19;20412;-68
2021/12/11 03:15:09;;;;;;;76.03;25.48;;;;;;;-1.72;96.30;100115.41;7399068;19;20039;-70
2021/12/11 03:17:38;;;;;;;115.40;25.40;;;;;;;-1.72;96.23;100119.66;7401820;19;20070;-71
2021/12/11 03:20:08;;;;;;;113.03;26.00;;;;;;;-1.75;96.40;100127.34;7401287;19;20035;-69
2021/12/11 03:22:36;;;;;;;103.07;24.63;;;;;;;-1.80;96.13;100125.53;7401162;19;20018;-68
2021/12/11 03:25:10;;;;;;;89.30;23.08;;;;;;;-1.81;96.37;100130.66;7398665;19;20074;-68
2021/12/11 03:27:39;;;;;;;76.20;24.85;;;;;;;-1.82;96.22;100129.81;7401171;19;20356;-69
2021/12/11 03:30:10;;;;;;;118.00;23.55;;;;;;;-1.83;96.44;100140.06;7398647;19;20500;-69
2021/12/11 03:32:38;;;;;;;74.00;23.13;;;;;;;-1.86;96.62;100138.31;7400450;19;20507;-75
2021/12/11 03:35:11;;;;;;;82.57;23.60;;;;;;;-1.85;96.59;100150.28;7398763;19;20022;-70
2021/12/11 03:37:39;;;;;;;72.53;22.92;;;;;;;-1.84;96.48;100154.59;7400928;19;20078;-70
2021/12/11 03:40:12;;;;;;;66.35;24.20;;;;;;;-1.81;96.82;100161.50;7400567;19;20039;-70
2021/12/11 03:42:42;;;;;;;95.13;26.20;;;;;;;-1.78;96.64;100165.84;7400820;19;20039;-71
2021/12/11 03:45:16;;;;;;;94.30;26.30;;;;;;;-1.76;96.79;100161.63;7398240;19;20018;-70
2021/12/11 03:47:48;;;;;;;141.32;26.20;;;;;;;-1.74;96.64;100165.94;7398644;19;20027;-71
2021/12/11 03:50:18;;;;;;;92.43;25.40;;;;;;;-1.71;96.79;100178.84;7397855;19;20425;-70
2021/12/11 03:52:48;;;;;;;78.30;25.52;;;;;;;-1.70;96.43;100179.72;7400490;19;20039;-70
2021/12/11 03:55:23;;;;;;;89.60;25.10;;;;;;;-1.68;96.65;100188.31;7397627;19;20483;-70
2021/12/11 03:57:57;;;;;;;103.45;25.77;;;;;;;-1.69;96.60;100187.47;7400168;19;20480;-70
2021/12/11 04:00:26;;;;;;;82.22;25.52;;;;;;;-1.70;96.32;100192.59;7398204;19;20361;-71
2021/12/11 04:03:02;;;;;;;87.68;25.88;;;;;;;-1.69;96.44;100208.06;7397881;19;20035;-71
2021/12/11 04:05:33;;;;;;;88.30;25.45;;;;;;;-1.69;96.52;100209.78;7397305;19;20018;-70
2021/12/11 04:08:01;;;;;;;74.35;24.42;;;;;;;-1.72;96.27;100214.84;7400610;19;20014;-71
2021/12/11 04:10:32;;;;;;;77.32;25.58;;;;;;;-1.74;96.32;100213.97;7397926;19;20015;-70
2021/12/11 04:13:03;;;;;;;82.15;26.00;;;;;;;-1.75;96.47;100213.06;7400543;19;20077;-71
2021/12/11 04:15:31;;;;;;;68.68;24.38;;;;;;;-1.77;96.53;100207.00;7399793;19;20031;-70
2021/12/11 04:18:00;;;;;;;70.13;24.55;;;;;;;-1.74;96.50;100221.69;7399478;19;20039;-71
2021/12/11 04:20:30;;;;;;;89.18;25.67;;;;;;;-1.73;96.77;100225.97;7399375;19;20035;-71
2021/12/11 04:22:59;;;;;;;81.25;28.13;;;;;;;-1.75;96.72;100222.50;7399098;19;20475;-70
2021/12/11 04:25:32;;;;;;;94.20;26.20;;;;;;;-1.71;96.55;100229.44;7397171;19;20018;-71
2021/12/11 04:28:00;;;;;;;77.13;25.27;;;;;;;-1.71;96.63;100237.16;7398789;19;20412;-71
2021/12/11 04:30:30;;;;;;;75.50;23.20;;;;;;;-1.72;96.48;100238.88;7397396;19;20026;-70
2021/12/11 04:33:00;;;;;;;95.88;23.88;;;;;;;-1.73;96.28;100242.28;7398959;19;20037;-71
2021/12/11 04:35:31;;;;;;;72.97;23.73;;;;;;;-1.74;96.39;100245.69;7396501;19;20462;-70
2021/12/11 04:38:00;;;;;;;71.05;22.65;;;;;;;-1.76;96.09;100256.78;7399130;19;20052;-70
2021/12/11 04:40:37;;;;;;;67.22;23.30;;;;;;;-1.80;96.23;100258.41;7396601;19;20046;-70
2021/12/11 04:43:10;;;;;;;75.65;24.02;;;;;;;-1.83;96.33;100256.63;7398943;19;20025;-69
2021/12/11 04:45:41;;;;;;;71.88;23.45;;;;;;;-1.84;96.23;100256.63;7398973;19;20358;-70
2021/12/11 04:48:19;;;;;;;76.07;22.73;;;;;;;-1.87;96.20;100269.38;7397580;19;20010;-70
2021/12/11 04:50:56;;;;;;;89.35;23.33;;;;;;;-1.89;96.47;100266.78;7396857;19;20024;-70
2021/12/11 04:53:42;;;;;;;75.57;22.40;;;;;;;-1.90;96.52;100272.75;7398402;19;20018;-70
2021/12/11 04:56:49;;;;;;;64.32;21.67;;;;;;;-1.89;96.69;100273.66;7398674;19;20023;-70
2021/12/11 04:59:32;;;;;;;71.68;20.92;;;;;;;-1.88;96.60;100273.69;7395795;19;20052;-70
2021/12/11 05:02:16;;;;;;;70.78;21.67;;;;;;;-1.90;96.48;100282.19;7398328;19;20025;-70
2021/12/11 05:05:06;;;;;;;58.88;23.77;;;;;;;-1.92;96.47;100291.56;7396733;19;20024;-70
2021/12/11 05:07:40;;;;;;;93.80;23.42;;;;;;;-1.97;95.91;100297.50;7397491;19;20501;-70
2021/12/11 05:10:17;;;;;;;76.70;23.38;;;;;;;-2.00;96.18;100300.00;7397354;19;20010;-70
2021/12/11 05:12:51;;;;;;;84.60;21.70;;;;;;;-2.00;96.43;100301.69;7396144;19;20035;-70
2021/12/11 05:15:23;;;;;;;78.15;23.13;;;;;;;-2.01;96.65;100308.53;7395813;19;20026;-70
2021/12/11 05:17:53;;;;;;;67.75;23.27;;;;;;;-1.98;96.55;100315.47;7397978;19;20106;-70
2021/12/11 05:20:24;;;;;;;77.63;26.48;;;;;;;-2.03;96.70;100315.34;7397228;19;20070;-70
2021/12/11 05:22:53;;;;;;;83.68;21.77;;;;;;;-1.97;96.17;100325.78;7395890;19;20035;-70
2021/12/11 05:25:21;;;;;;;84.43;22.27;;;;;;;-1.99;96.21;100335.13;7395394;19;20032;-70
2021/12/11 05:27:52;;;;;;;78.18;23.20;;;;;;;-1.98;96.51;100330.88;7397184;19;20035;-70
2021/12/11 05:30:25;;;;;;;70.53;24.00;;;;;;;-1.97;96.49;100335.19;7395139;19;20422;-70
2021/12/11 05:32:56;;;;;;;75.85;22.85;;;;;;;-1.95;96.82;100343.78;7397354;19;20022;-70
2021/12/11 05:35:25;;;;;;;68.40;24.25;;;;;;;-1.93;96.62;100346.41;7395074;19;20026;-70
2021/12/11 05:37:54;;;;;;;82.45;24.25;;;;;;;-1.92;96.79;100348.13;7396619;19;20031;-70
2021/12/11 05:40:28;;;;;;;78.28;24.27;;;;;;;-1.93;96.58;100342.13;7396554;19;20028;-69
2021/12/11 05:42:59;;;;;;;;;;;;;;;-1.90;96.71;100360.19;7397420;19;20018;-70
2021/12/11 05:45:28;;;;;;;83.68;22.60;;;;;;;-1.89;96.42;100366.22;7394891;19;19931;-71
2021/12/11 05:47:57;;;;;;;75.90;23.35;;;;;;;-1.89;96.60;100373.94;7395554;19;20074;-71
2021/12/11 05:50:30;;;;;;;86.35;24.67;;;;;;;-1.90;96.71;100375.63;7395751;19;20022;-70
2021/12/11 05:52:58;;;;;;;73.18;23.92;;;;;;;-1.87;96.79;100379.97;7396783;19;20026;-70
2021/12/11 05:55:29;;;;;;;93.22;25.40;;;;;;;-1.85;96.51;100391.16;7394172;19;20421;-70
2021/12/11 05:58:10;;;;;;;80.30;25.13;;;;;;;-1.85;96.59;100393.75;7396584;19;20364;-70
2021/12/11 06:00:42;;;;;;;97.28;35.75;;;;;;;-1.86;96.81;100387.75;7395665;19;20368;-70
2021/12/11 06:03:12;;;;;;;77.38;26.95;;;;;;;-1.83;96.64;100395.50;7396412;19;20113;-70
2021/12/11 06:05:40;;;;;;;68.82;23.30;;;;;;;-1.81;96.69;100400.69;7395928;19;20022;-70
2021/12/11 06:08:11;;;;;;;73.75;22.92;;;;;;;-1.80;96.61;100402.44;7395888;19;20028;-70
2021/12/11 06:10:41;;;;;;;76.13;24.25;;;;;;;-1.82;96.26;100401.50;7394223;19;20376;-70
2021/12/11 06:13:12;;;;;;;69.45;23.02;;;;;;;-1.82;96.40;100397.25;7393894;19;20031;-69
2021/12/11 06:15:42;;;;;;;81.40;24.73;;;;;;;-1.83;96.46;100407.50;7395493;19;20483;-72
2021/12/11 06:18:15;;;;;;;79.88;23.38;;;;;;;-1.80;96.58;100407.56;7395513;19;20035;-70
2021/12/11 06:20:43;;;;;;;87.53;26.08;;;;;;;-1.78;96.57;100415.31;7396014;19;20018;-70
2021/12/11 06:23:11;;;;;;;74.72;24.95;;;;;;;-1.78;96.81;100415.31;7395166;19;20078;-69
2021/12/11 06:25:39;;;;;;;81.22;25.80;;;;;;;-1.76;96.86;100418.81;7395051;19;20503;-70
2021/12/11 06:28:11;;;;;;;75.07;26.00;;;;;;;-1.74;96.82;100427.44;7395368;19;20019;-70
2021/12/11 06:30:41;;;;;;;77.18;23.83;;;;;;;-1.72;97.00;100434.34;7394839;19;20022;-70
2021/12/11 06:33:10;;;;;;;66.80;23.67;;;;;;;-1.70;96.73;100434.38;7395417;19;20018;-70
2021/12/11 06:35:43;;;;;;;69.53;22.55;;;;;;;-1.69;96.70;100441.28;7394686;19;20022;-70
2021/12/11 06:38:14;;;;;;;76.53;24.23;;;;;;;-1.68;96.59;100440.41;7394953;19;20028;-70
2021/12/11 06:40:42;;;;;;;74.13;23.38;;;;;;;-1.71;96.89;100450.66;7395345;19;20018;-70
2021/12/11 06:43:13;;;;;;;83.30;25.20;;;;;;;-1.67;96.60;100458.47;7392222;19;20503;-70
2021/12/11 06:45:42;;;;;;;67.85;22.60;;;;;;;-1.67;96.68;100467.88;7395274;19;20015;-70
2021/12/11 06:48:10;;;;;;;65.00;22.80;;;;;;;-1.67;96.79;100467.88;7393632;19;20010;-70
2021/12/11 06:50:38;;;;;;;57.30;21.90;;;;;;;-1.68;96.68;100472.16;7394096;19;20078;-70
2021/12/11 06:53:11;;;;;;;63.08;21.58;;;;;;;-1.66;96.75;100475.63;7392542;19;20035;-70
2021/12/11 06:55:39;;;;;;;61.35;20.88;;;;;;;-1.65;96.61;100481.66;7394133;19;20551;-71
2021/12/11 06:58:07;;;;;;;59.85;21.45;;;;;;;-1.63;96.67;100482.56;7394174;19;20479;-71
2021/12/11 07:00:38;;;;;;;63.33;23.80;;;;;;;-1.60;96.78;100489.50;7394461;19;20031;-69
2021/12/11 07:03:07;;;;;;;63.25;21.77;;;;;;;-1.61;96.82;100491.19;7394759;19;20018;-69
2021/12/11 07:05:37;;;;;;;67.05;22.00;;;;;;;-1.59;96.73;100502.41;7394345;19;20014;-72
2021/12/11 07:08:07;;;;;;;64.95;24.08;;;;;;;-1.57;96.37;100511.00;7394348;19;20363;-70
2021/12/11 07:10:36;;;;;;;55.50;19.75;;;;;;;-1.60;96.54;100515.22;7393403;19;20022;-70
2021/12/11 07:13:04;;;;;;;58.65;20.23;;;;;;;-1.60;96.27;100523.81;7394252;19;20022;-70
2021/12/11 07:15:33;;;;;;;50.30;19.38;;;;;;;-1.62;96.50;100532.31;7394086;19;20019;-71
2021/12/11 07:18:04;;;;;;;60.38;27.90;;;;;;;-1.64;96.44;100535.72;7393901;19;20022;-71
2021/12/11 07:20:33;;;;;;;56.95;22.05;;;;;;;-1.66;96.48;100537.38;7395077;19;20014;-71
2021/12/11 07:23:03;;;;;;;60.88;23.80;;;;;;;-1.61;96.65;100546.94;7396804;19;20037;-70
2021/12/11 07:25:36;;;;;;;66.82;27.42;;;;;;;-1.61;96.39;100555.50;7397843;19;20361;-71
2021/12/11 07:28:08;;;;;;;49.67;19.47;;;;;;;-1.59;96.35;100565.81;7400879;19;20035;-71
2021/12/11 07:30:37;;;;;;;46.35;20.50;;;;;;;-1.59;96.50;100566.72;7401905;19;20029;-71
2021/12/11 07:33:10;;;;;;;51.95;19.85;;;;;;;-1.58;96.49;100573.59;7400944;19;20014;-70
2021/12/11 07:35:40;;;;;;;45.80;19.55;;;;;;;-1.58;96.23;100581.31;7401076;19;20082;-71
2021/12/11 07:38:09;;;;;;;46.65;19.95;;;;;;;-1.58;96.13;100588.16;7400502;19;20437;-71
2021/12/11 07:40:40;;;;;;;41.85;19.10;;;;;;;-1.60;96.10;100594.97;7400057;19;20499;-70
2021/12/11 07:43:10;;;;;;;45.58;18.65;;;;;;;-1.62;96.20;100606.94;7400673;19;20039;-70
2021/12/11 07:45:38;;;;;;;55.83;22.17;;;;;;;-1.61;96.16;100621.53;7400529;19;20018;-71
2021/12/11 07:48:09;;;;;;;64.25;23.80;;;;;;;-1.60;96.37;100629.28;7399333;19;20037;-70
2021/12/11 07:50:38;;;;;;;55.53;22.83;;;;;;;-1.60;96.39;100621.56;7399569;19;20074;-70
2021/12/11 07:53:07;;;;;;;54.70;22.02;;;;;;;-1.57;96.37;100634.50;7400208;19;20022;-70
2021/12/11 07:55:35;;;;;;;49.35;20.77;;;;;;;-1.56;96.19;100635.38;7400136;19;20019;-70
2021/12/11 07:58:06;;;;;;;56.67;22.20;;;;;;;-1.58;96.11;100630.22;7400031;19;20014;-70
2021/12/11 08:00:35;;;;;;;62.42;24.08;;;;;;;-1.58;95.99;100637.94;7397310;19;20368;-70
2021/12/11 08:03:05;;;;;;;48.72;21.13;;;;;;;-1.60;95.95;100634.44;7397454;19;20082;-70
2021/12/11 08:05:36;;;;;;;51.10;19.95;;;;;;;-1.60;95.79;100642.16;7400069;19;20078;-70
2021/12/11 08:08:06;;;;;;;45.45;18.50;;;;;;;-1.60;95.51;100647.31;7399983;19;20022;-70
2021/12/11 08:10:36;;;;;;;45.55;20.02;;;;;;;-1.62;95.57;100654.09;7398735;19;20019;-70
2021/12/11 08:13:06;;;;;;;40.58;18.17;;;;;;;-1.60;95.55;100660.16;7400067;19;20028;-70
2021/12/11 08:15:34;;;;;;;45.60;20.67;;;;;;;-1.59;95.80;100661.91;7399647;19;20147;-71
2021/12/11 08:18:03;;;;;;;50.70;20.67;;;;;;;-1.58;95.71;100663.66;7399316;19;20015;-70
2021/12/11 08:20:36;;;;;;;51.08;20.95;;;;;;;-1.56;95.80;100668.84;7399195;19;20019;-71
2021/12/11 08:23:06;;;;;;;56.47;20.58;;;;;;;-1.54;95.74;100670.63;7396961;19;20017;-70
2021/12/11 08:25:37;;;;;;;46.95;18.95;;;;;;;-1.52;95.57;100675.81;7398945;19;20014;-71
2021/12/11 08:28:07;;;;;;;53.85;20.35;;;;;;;-1.54;95.79;100680.91;7399106;19;20026;-70
2021/12/11 08:30:38;;;;;;;50.78;20.08;;;;;;;-1.54;95.19;100687.75;7396680;19;20006;-71
2021/12/11 08:33:07;;;;;;;51.63;21.15;;;;;;;-1.55;95.49;100693.75;7396603;19;20073;-71
2021/12/11 08:35:45;;;;;;;55.78;21.15;;;;;;;-1.56;95.10;100695.44;7398229;19;20482;-71
2021/12/11 08:38:20;;;;;;;50.78;20.25;;;;;;;-1.56;95.30;100703.16;7399087;19;20096;-71
2021/12/11 08:40:51;;;;;;;49.85;20.27;;;;;;;-1.56;95.25;100707.44;7398705;19;20023;-70
2021/12/11 08:43:23;;;;;;;52.20;19.60;;;;;;;-1.56;95.44;100713.44;7398399;19;20015;-70
2021/12/11 08:46:08;;;;;;;49.63;19.90;;;;;;;-1.55;95.67;100715.19;7398204;19;20015;-70
2021/12/11 08:48:38;;;;;;;44.60;18.58;;;;;;;-1.53;95.44;100710.97;7396041;19;20027;-70
2021/12/11 08:51:13;;;;;;;43.08;18.92;;;;;;;-1.52;95.64;100720.41;7395633;19;20546;-70
2021/12/11 08:53:41;;;;;;;44.65;18.42;;;;;;;-1.53;94.75;100720.38;7397162;19;20090;-70
2021/12/11 08:56:12;;;;;;;43.42;18.52;;;;;;;-1.57;94.37;100726.28;7398046;19;20601;-70
2021/12/11 08:58:42;;;;;;;51.95;19.17;;;;;;;-1.62;93.99;100726.13;7398351;19;20018;-70
2021/12/11 09:01:16;;;;;;;40.15;18.95;;;;;;;-1.67;94.35;100735.44;7397797;19;20014;-71
2021/12/11 09:03:48;;;;;;;44.42;19.83;;;;;;;-1.72;94.94;100731.84;7397700;19;20026;-71
2021/12/11 09:06:27;;;;;;;51.10;20.10;;;;;;;-1.71;94.96;100736.19;7398107;19;20078;-71
2021/12/11 09:09:00;;;;;;;45.42;17.00;;;;;;;-1.69;95.22;100747.41;7398190;19;20011;-71
2021/12/11 09:11:35;;;;;;;34.33;16.00;;;;;;;-1.71;94.41;100746.47;7397230;19;20031;-71
2021/12/11 09:14:07;;;;;;;43.03;19.63;;;;;;;-1.71;94.53;100746.47;7397000;19;20022;-71
2021/12/11 09:16:44;;;;;;;46.30;18.50;;;;;;;-1.74;94.63;100747.25;7397991;19;20022;-71
2021/12/11 09:19:17;;;;;;;44.92;16.45;;;;;;;-1.76;93.97;100759.19;7397464;19;20010;-71
2021/12/11 09:21:56;;;;;;;36.60;15.27;;;;;;;-1.78;94.22;100752.25;7397402;19;20018;-71
2021/12/11 09:24:27;;;;;;;40.35;18.77;;;;;;;-1.80;94.30;100763.38;7394570;19;20409;-71
2021/12/11 09:26:59;;;;;;;43.35;17.85;;;;;;;-1.80;94.77;100762.50;7397072;19;20022;-71
2021/12/11 09:29:30;;;;;;;46.78;18.17;;;;;;;-1.77;95.14;100761.72;7397280;19;20031;-71
2021/12/11 09:32:26;;;;;;;40.35;17.38;;;;;;;-1.75;94.82;100766.09;7395058;19;20011;-71
2021/12/11 09:34:58;;;;;;;37.72;15.52;;;;;;;-1.73;95.07;100771.25;7395171;19;20022;-71
2021/12/11 09:37:30;;;;;;;41.55;16.27;;;;;;;-1.77;95.00;100762.59;7396432;19;20106;-70
2021/12/11 09:40:01;;;;;;;44.50;18.52;;;;;;;-1.75;94.87;100762.66;7396104;19;20479;-70
2021/12/11 09:42:29;;;;;;;39.42;15.95;;;;;;;-1.66;95.07;100776.63;7396738;19;20025;-70
2021/12/11 09:45:04;;;;;;;41.67;18.40;;;;;;;-1.64;94.84;100781.84;7393420;19;20019;-71
2021/12/11 09:47:39;;;;;;;41.78;16.73;;;;;;;-1.66;94.55;100784.34;7396758;19;20023;-71
2021/12/11 09:50:25;;;;;;;32.38;15.00;;;;;;;-1.68;93.88;100791.16;7394298;19;20494;-71
2021/12/11 09:52:55;;;;;;;33.13;16.25;;;;;;;-1.69;94.26;100792.00;7394831;19;20030;-71
2021/12/11 09:55:29;;;;;;;29.80;14.15;;;;;;;-1.66;94.30;100798.91;7394239;19;20022;-71
2021/12/11 09:58:04;;;;;;;30.30;15.85;;;;;;;-1.65;94.76;100800.66;7396490;19;20015;-71
2021/12/11 10:00:39;;;;;;;29.23;15.38;;;;;;;-1.64;94.35;100802.41;7396100;19;20378;-71
2021/12/11 10:03:08;;;;;;;32.55;16.42;;;;;;;-1.59;94.55;100808.56;7395635;19;20039;-70
2021/12/11 10:05:44;;;;;;;31.23;16.25;;;;;;;-1.59;93.90;100803.44;7395718;19;20014;-71
2021/12/11 10:08:30;;;;;;;27.65;14.52;;;;;;;-1.57;94.06;100809.47;7396059;19;20086;-71
2021/12/11 10:11:11;;;;;;;32.10;15.45;;;;;;;-1.57;94.21;100816.31;7395853;19;20010;-70
2021/12/11 10:13:44;;;;;;;33.35;16.38;;;;;;;-1.56;94.33;100816.38;7395608;19;20023;-70
2021/12/11 10:16:17;;;;;;;34.72;16.52;;;;;;;-1.54;94.44;100818.97;7395570;19;20078;-70
2021/12/11 10:18:46;;;;;;;33.83;17.40;;;;;;;-1.54;94.09;100827.59;7396005;19;20039;-71
2021/12/11 10:21:18;;;;;;;37.55;18.05;;;;;;;-1.52;93.64;100827.63;7395369;19;20475;-71
2021/12/11 10:23:50;;;;;;;34.08;17.38;;;;;;;-1.53;93.61;100829.34;7394935;19;20018;-71
2021/12/11 10:26:20;;;;;;;35.53;17.05;;;;;;;-1.54;93.46;100827.59;7395757;19;20031;-71
2021/12/11 10:28:51;;;;;;;36.05;17.15;;;;;;;-1.52;93.64;100828.47;7395312;19;20048;-71
2021/12/11 10:31:25;;;;;;;40.25;19.92;;;;;;;-1.54;93.46;100831.84;7394475;19;20412;-71
2021/12/11 10:33:54;;;;;;;42.97;21.25;;;;;;;-1.51;93.07;100837.09;7394626;19;20036;-71
2021/12/11 10:36:28;;;;;;;33.95;17.27;;;;;;;-1.50;93.50;100828.56;7392565;19;20416;-71
2021/12/11 10:38:58;;;;;;;39.45;17.88;;;;;;;-1.53;93.22;100831.91;7395116;19;20036;-71
2021/12/11 10:41:27;;;;;;;34.45;17.70;;;;;;;-1.46;93.38;100837.25;7394905;19;20040;-70
2021/12/11 10:44:00;;;;;;;33.95;17.10;;;;;;;-1.42;92.85;100839.06;7394171;19;20019;-71
2021/12/11 10:46:34;;;;;;;32.42;17.15;;;;;;;-1.43;93.10;100845.03;7395201;19;20019;-71
2021/12/11 10:49:03;;;;;;;30.95;16.77;;;;;;;-1.41;93.09;100846.81;7393412;19;20408;-71
2021/12/11 10:51:39;;;;;;;158.38;77.80;;;;;;;-1.40;93.66;100842.53;7394052;19;20471;-71
2021/12/11 10:54:08;;;;;;;36.70;19.50;;;;;;;-1.37;93.54;100843.50;7393621;19;20033;-71
2021/12/11 10:56:37;;;;;;;32.22;16.73;;;;;;;-1.36;92.96;100845.25;7394529;19;20019;-71
2021/12/11 10:59:09;;;;;;;33.10;17.92;;;;;;;-1.33;92.63;100854.75;7400550;19;20508;-71
2021/12/11 11:01:42;;;;;;;31.95;18.45;;;;;;;-1.34;92.46;100848.75;7402536;19;20018;-71
2021/12/11 11:04:14;;;;;;;30.65;16.92;;;;;;;-1.33;92.83;100858.22;7401143;19;20018;-71
2021/12/11 11:06:45;;;;;;;37.38;18.48;;;;;;;-1.34;92.99;100859.03;7402094;19;20018;-71
2021/12/11 11:09:15;;;;;;;29.33;16.75;;;;;;;-1.34;93.07;100869.34;7402129;19;20412;-71
2021/12/11 11:11:43;;;;;;;27.65;14.93;;;;;;;-1.33;92.96;100875.34;7401154;19;20014;-71
2021/12/11 11:14:14;;;;;;;26.90;15.80;;;;;;;-1.34;92.48;100879.63;7400326;19;20039;-71
2021/12/11 11:16:52;;;;;;;26.02;15.68;;;;;;;-1.33;92.64;100875.34;7401110;19;20014;-71
2021/12/11 11:19:22;;;;;;;27.88;16.90;;;;;;;-1.32;92.90;100877.09;7401731;19;20015;-71
2021/12/11 11:21:56;;;;;;;29.17;16.50;;;;;;;-1.29;92.09;100878.88;7401190;19;20022;-71
2021/12/11 11:24:25;;;;;;;26.92;16.38;;;;;;;-1.27;92.37;100879.81;7399697;19;20030;-71
2021/12/11 11:26:55;;;;;;;27.05;16.90;;;;;;;-1.34;92.03;100871.03;7401386;19;20023;-71
2021/12/11 11:29:25;;;;;;;25.58;14.80;;;;;;;-1.26;92.33;100886.69;7402496;19;20070;-72
2021/12/11 11:31:58;;;;;;;26.63;16.10;;;;;;;-1.25;92.14;100891.91;7400268;19;20424;-71
2021/12/11 11:34:29;;;;;;;27.08;16.13;;;;;;;-1.25;92.46;100915.06;7398970;19;20018;-70